sensor_id;sensor_type;location;lat;lon;timestamp;P1;durP1;ratioP1;P2;durP2;ratioP2
30539;SDS011;17321;46.312;4.776;2023-02-15T00:01:45;33.67;;;19.30;;
30539;SDS011;17321;46.312;4.776;2023-02-15T00:04:15;34.13;;;21.33;;
30539;SDS011;17321;46.312;4.776;2023-02-15T00:06:41;30.70;;;19.38;;
30539;SDS011;17321;46.312;4.776;2023-02-15T00:09:08;31.58;;;19.42;;
30539;SDS011;17321;46.312;4.776;2023-02-15T00:11:34;33.65;;;19.83;;
30539;SDS011;17321;46.312;4.776;2023-02-15T00:14:30;29.08;;;18.15;;
30539;SDS011;17321;46.312;4.776;2023-02-15T00:16:56;34.03;;;20.42;;
30539;SDS011;17321;46.312;4.776;2023-02-15T00:19:24;28.58;;;18.25;;
30539;SDS011;17321;46.312;4.776;2023-02-15T00:21:51;33.88;;;19.85;;
30539;SDS011;17321;46.312;4.776;2023-02-15T00:24:18;32.30;;;18.25;;
30539;SDS011;17321;46.312;4.776;2023-02-15T00:26:45;30.48;;;19.20;;
30539;SDS011;17321;46.312;4.776;2023-02-15T00:29:11;29.10;;;18.70;;
30539;SDS011;17321;46.312;4.776;2023-02-15T00:31:38;30.15;;;18.30;;
30539;SDS011;17321;46.312;4.776;2023-02-15T00:34:05;31.92;;;19.50;;
30539;SDS011;17321;46.312;4.776;2023-02-15T00:36:32;29.58;;;17.50;;
30539;SDS011;17321;46.312;4.776;2023-02-15T00:38:58;28.85;;;17.58;;
30539;SDS011;17321;46.312;4.776;2023-02-15T00:41:24;30.95;;;18.33;;
30539;SDS011;17321;46.312;4.776;2023-02-15T00:43:50;33.28;;;18.95;;
30539;SDS011;17321;46.312;4.776;2023-02-15T00:46:16;33.03;;;18.65;;
30539;SDS011;17321;46.312;4.776;2023-02-15T00:48:43;28.67;;;18.33;;
30539;SDS011;17321;46.312;4.776;2023-02-15T00:51:09;28.27;;;17.70;;
30539;SDS011;17321;46.312;4.776;2023-02-15T00:53:35;28.20;;;17.52;;
30539;SDS011;17321;46.312;4.776;2023-02-15T00:56:01;28.73;;;18.38;;
30539;SDS011;17321;46.312;4.776;2023-02-15T00:58:27;32.78;;;19.23;;
30539;SDS011;17321;46.312;4.776;2023-02-15T01:00:53;28.38;;;17.50;;
30539;SDS011;17321;46.312;4.776;2023-02-15T01:03:20;27.98;;;17.60;;
30539;SDS011;17321;46.312;4.776;2023-02-15T01:05:47;30.02;;;19.77;;
30539;SDS011;17321;46.312;4.776;2023-02-15T01:08:14;31.15;;;18.42;;
30539;SDS011;17321;46.312;4.776;2023-02-15T01:10:40;33.92;;;18.23;;
30539;SDS011;17321;46.312;4.776;2023-02-15T01:13:08;31.70;;;19.50;;
30539;SDS011;17321;46.312;4.776;2023-02-15T01:15:35;31.63;;;18.60;;
30539;SDS011;17321;46.312;4.776;2023-02-15T01:18:01;29.67;;;17.67;;
30539;SDS011;17321;46.312;4.776;2023-02-15T01:20:27;29.52;;;18.77;;
30539;SDS011;17321;46.312;4.776;2023-02-15T01:22:54;32.13;;;18.63;;
30539;SDS011;17321;46.312;4.776;2023-02-15T01:25:21;29.23;;;18.10;;
30539;SDS011;17321;46.312;4.776;2023-02-15T01:27:48;32.38;;;19.88;;
30539;SDS011;17321;46.312;4.776;2023-02-15T01:30:14;28.20;;;18.27;;
30539;SDS011;17321;46.312;4.776;2023-02-15T01:32:41;32.10;;;19.52;;
30539;SDS011;17321;46.312;4.776;2023-02-15T01:35:08;29.25;;;18.42;;
30539;SDS011;17321;46.312;4.776;2023-02-15T01:37:35;29.23;;;18.92;;
30539;SDS011;17321;46.312;4.776;2023-02-15T01:40:05;32.90;;;21.17;;
30539;SDS011;17321;46.312;4.776;2023-02-15T01:42:32;32.50;;;19.15;;
30539;SDS011;17321;46.312;4.776;2023-02-15T01:44:59;30.48;;;19.65;;
30539;SDS011;17321;46.312;4.776;2023-02-15T01:52:30;27.00;;;18.10;;
30539;SDS011;17321;46.312;4.776;2023-02-15T01:54:56;30.55;;;19.73;;
30539;SDS011;17321;46.312;4.776;2023-02-15T01:57:23;27.90;;;18.83;;
30539;SDS011;17321;46.312;4.776;2023-02-15T01:59:52;31.35;;;19.50;;
30539;SDS011;17321;46.312;4.776;2023-02-15T02:02:21;25.45;;;17.75;;
30539;SDS011;17321;46.312;4.776;2023-02-15T02:04:53;28.05;;;19.67;;
30539;SDS011;17321;46.312;4.776;2023-02-15T02:07:21;30.25;;;19.85;;
30539;SDS011;17321;46.312;4.776;2023-02-15T02:09:48;27.00;;;18.70;;
30539;SDS011;17321;46.312;4.776;2023-02-15T02:12:15;28.73;;;19.17;;
30539;SDS011;17321;46.312;4.776;2023-02-15T02:14:42;29.15;;;19.48;;
30539;SDS011;17321;46.312;4.776;2023-02-15T02:17:11;27.92;;;19.55;;
30539;SDS011;17321;46.312;4.776;2023-02-15T02:19:46;30.25;;;19.02;;
30539;SDS011;17321;46.312;4.776;2023-02-15T02:33:14;33.38;;;20.05;;
30539;SDS011;17321;46.312;4.776;2023-02-15T02:38:19;30.45;;;19.50;;
30539;SDS011;17321;46.312;4.776;2023-02-15T02:41:36;41.05;;;21.77;;
30539;SDS011;17321;46.312;4.776;2023-02-15T02:46:17;35.15;;;21.45;;
30539;SDS011;17321;46.312;4.776;2023-02-15T02:48:45;36.35;;;21.65;;
30539;SDS011;17321;46.312;4.776;2023-02-15T02:51:11;32.97;;;19.92;;
30539;SDS011;17321;46.312;4.776;2023-02-15T02:53:39;31.50;;;19.58;;
30539;SDS011;17321;46.312;4.776;2023-02-15T02:56:06;36.20;;;20.95;;
30539;SDS011;17321;46.312;4.776;2023-02-15T02:58:37;34.97;;;21.33;;
30539;SDS011;17321;46.312;4.776;2023-02-15T03:03:58;32.25;;;20.02;;
30539;SDS011;17321;46.312;4.776;2023-02-15T03:06:46;34.05;;;22.00;;
30539;SDS011;17321;46.312;4.776;2023-02-15T03:09:45;33.17;;;21.63;;
30539;SDS011;17321;46.312;4.776;2023-02-15T03:12:10;33.45;;;20.60;;
30539;SDS011;17321;46.312;4.776;2023-02-15T03:14:37;34.40;;;21.52;;
30539;SDS011;17321;46.312;4.776;2023-02-15T03:17:03;34.83;;;22.48;;
30539;SDS011;17321;46.312;4.776;2023-02-15T03:19:30;36.17;;;22.63;;
30539;SDS011;17321;46.312;4.776;2023-02-15T03:22:04;32.20;;;21.02;;
30539;SDS011;17321;46.312;4.776;2023-02-15T03:24:35;32.58;;;21.42;;
30539;SDS011;17321;46.312;4.776;2023-02-15T03:27:02;36.58;;;22.45;;
30539;SDS011;17321;46.312;4.776;2023-02-15T03:29:29;31.02;;;20.73;;
30539;SDS011;17321;46.312;4.776;2023-02-15T03:31:58;34.90;;;21.15;;
30539;SDS011;17321;46.312;4.776;2023-02-15T03:34:25;33.07;;;22.00;;
30539;SDS011;17321;46.312;4.776;2023-02-15T03:36:53;36.03;;;22.92;;
30539;SDS011;17321;46.312;4.776;2023-02-15T03:39:24;35.65;;;22.33;;
30539;SDS011;17321;46.312;4.776;2023-02-15T03:47:14;30.90;;;20.92;;
30539;SDS011;17321;46.312;4.776;2023-02-15T03:52:08;36.13;;;23.52;;
30539;SDS011;17321;46.312;4.776;2023-02-15T03:54:35;40.72;;;24.92;;
30539;SDS011;17321;46.312;4.776;2023-02-15T03:57:24;40.90;;;25.25;;
30539;SDS011;17321;46.312;4.776;2023-02-15T04:05:42;38.20;;;24.42;;
30539;SDS011;17321;46.312;4.776;2023-02-15T04:08:09;39.85;;;25.10;;
30539;SDS011;17321;46.312;4.776;2023-02-15T04:10:35;40.67;;;26.10;;
30539;SDS011;17321;46.312;4.776;2023-02-15T04:13:20;42.70;;;24.67;;
30539;SDS011;17321;46.312;4.776;2023-02-15T04:15:47;41.90;;;26.00;;
30539;SDS011;17321;46.312;4.776;2023-02-15T04:18:38;42.92;;;25.92;;
30539;SDS011;17321;46.312;4.776;2023-02-15T04:21:24;38.75;;;24.90;;
30539;SDS011;17321;46.312;4.776;2023-02-15T04:24:10;41.53;;;25.13;;
30539;SDS011;17321;46.312;4.776;2023-02-15T04:26:55;38.92;;;26.30;;
30539;SDS011;17321;46.312;4.776;2023-02-15T04:29:21;37.17;;;23.90;;
30539;SDS011;17321;46.312;4.776;2023-02-15T04:31:48;43.47;;;25.08;;
30539;SDS011;17321;46.312;4.776;2023-02-15T04:34:14;36.15;;;25.58;;
30539;SDS011;17321;46.312;4.776;2023-02-15T04:36:41;39.15;;;24.73;;
30539;SDS011;17321;46.312;4.776;2023-02-15T04:39:07;35.53;;;24.20;;
30539;SDS011;17321;46.312;4.776;2023-02-15T04:41:34;36.13;;;23.40;;
30539;SDS011;17321;46.312;4.776;2023-02-15T04:44:00;38.55;;;24.30;;
30539;SDS011;17321;46.312;4.776;2023-02-15T04:46:27;44.85;;;26.92;;
30539;SDS011;17321;46.312;4.776;2023-02-15T04:48:54;35.30;;;23.60;;
30539;SDS011;17321;46.312;4.776;2023-02-15T04:51:20;36.25;;;25.35;;
30539;SDS011;17321;46.312;4.776;2023-02-15T04:53:46;40.40;;;25.92;;
30539;SDS011;17321;46.312;4.776;2023-02-15T04:56:12;38.17;;;26.95;;
30539;SDS011;17321;46.312;4.776;2023-02-15T04:58:38;39.33;;;24.95;;
30539;SDS011;17321;46.312;4.776;2023-02-15T05:01:08;38.47;;;25.75;;
30539;SDS011;17321;46.312;4.776;2023-02-15T05:03:34;36.05;;;25.45;;
30539;SDS011;17321;46.312;4.776;2023-02-15T05:06:00;41.28;;;25.80;;
30539;SDS011;17321;46.312;4.776;2023-02-15T05:08:26;40.22;;;25.33;;
30539;SDS011;17321;46.312;4.776;2023-02-15T05:10:53;38.25;;;25.92;;
30539;SDS011;17321;46.312;4.776;2023-02-15T05:13:19;40.72;;;27.02;;
30539;SDS011;17321;46.312;4.776;2023-02-15T05:15:48;41.78;;;27.38;;
30539;SDS011;17321;46.312;4.776;2023-02-15T05:18:15;40.80;;;26.77;;
30539;SDS011;17321;46.312;4.776;2023-02-15T05:20:41;40.00;;;27.45;;
30539;SDS011;17321;46.312;4.776;2023-02-15T05:23:07;42.75;;;27.40;;
30539;SDS011;17321;46.312;4.776;2023-02-15T05:25:33;37.80;;;26.55;;
30539;SDS011;17321;46.312;4.776;2023-02-15T05:28:18;41.67;;;26.92;;
30539;SDS011;17321;46.312;4.776;2023-02-15T05:30:45;43.90;;;28.33;;
30539;SDS011;17321;46.312;4.776;2023-02-15T05:33:11;37.63;;;25.80;;
30539;SDS011;17321;46.312;4.776;2023-02-15T05:35:37;44.50;;;27.02;;
30539;SDS011;17321;46.312;4.776;2023-02-15T05:38:03;43.72;;;27.38;;
30539;SDS011;17321;46.312;4.776;2023-02-15T05:40:30;45.38;;;27.80;;
30539;SDS011;17321;46.312;4.776;2023-02-15T05:42:56;41.65;;;27.80;;
30539;SDS011;17321;46.312;4.776;2023-02-15T05:45:22;41.38;;;28.77;;
30539;SDS011;17321;46.312;4.776;2023-02-15T05:47:49;42.75;;;27.00;;
30539;SDS011;17321;46.312;4.776;2023-02-15T05:50:15;46.15;;;28.45;;
30539;SDS011;17321;46.312;4.776;2023-02-15T05:52:41;36.53;;;26.98;;
30539;SDS011;17321;46.312;4.776;2023-02-15T05:55:07;47.20;;;27.80;;
30539;SDS011;17321;46.312;4.776;2023-02-15T05:57:34;41.88;;;28.42;;
30539;SDS011;17321;46.312;4.776;2023-02-15T06:00:00;43.70;;;28.23;;
30539;SDS011;17321;46.312;4.776;2023-02-15T06:02:29;42.95;;;28.15;;
30539;SDS011;17321;46.312;4.776;2023-02-15T06:04:55;41.50;;;28.95;;
30539;SDS011;17321;46.312;4.776;2023-02-15T06:07:21;47.60;;;29.23;;
30539;SDS011;17321;46.312;4.776;2023-02-15T06:09:47;45.75;;;29.63;;
30539;SDS011;17321;46.312;4.776;2023-02-15T06:12:13;47.85;;;29.92;;
30539;SDS011;17321;46.312;4.776;2023-02-15T06:14:40;45.30;;;29.20;;
30539;SDS011;17321;46.312;4.776;2023-02-15T06:17:06;47.53;;;30.48;;
30539;SDS011;17321;46.312;4.776;2023-02-15T06:19:32;48.67;;;30.63;;
30539;SDS011;17321;46.312;4.776;2023-02-15T06:21:58;43.00;;;29.08;;
30539;SDS011;17321;46.312;4.776;2023-02-15T06:24:24;44.92;;;29.63;;
30539;SDS011;17321;46.312;4.776;2023-02-15T06:26:50;44.25;;;28.63;;
30539;SDS011;17321;46.312;4.776;2023-02-15T06:29:16;44.15;;;29.95;;
30539;SDS011;17321;46.312;4.776;2023-02-15T06:31:42;46.55;;;29.73;;
30539;SDS011;17321;46.312;4.776;2023-02-15T06:34:08;42.88;;;27.83;;
30539;SDS011;17321;46.312;4.776;2023-02-15T06:36:34;42.45;;;27.77;;
30539;SDS011;17321;46.312;4.776;2023-02-15T06:39:01;45.75;;;29.70;;
30539;SDS011;17321;46.312;4.776;2023-02-15T06:41:28;43.22;;;27.38;;
30539;SDS011;17321;46.312;4.776;2023-02-15T06:43:54;46.70;;;29.85;;
30539;SDS011;17321;46.312;4.776;2023-02-15T06:46:20;48.67;;;30.63;;
30539;SDS011;17321;46.312;4.776;2023-02-15T06:48:46;44.92;;;30.70;;
30539;SDS011;17321;46.312;4.776;2023-02-15T06:51:12;42.95;;;30.35;;
30539;SDS011;17321;46.312;4.776;2023-02-15T06:53:38;47.65;;;30.20;;
30539;SDS011;17321;46.312;4.776;2023-02-15T06:56:07;47.15;;;32.47;;
30539;SDS011;17321;46.312;4.776;2023-02-15T06:58:37;50.90;;;32.55;;
30539;SDS011;17321;46.312;4.776;2023-02-15T07:01:03;48.13;;;32.22;;
30539;SDS011;17321;46.312;4.776;2023-02-15T07:03:30;52.20;;;33.58;;
30539;SDS011;17321;46.312;4.776;2023-02-15T07:05:56;48.28;;;31.60;;
30539;SDS011;17321;46.312;4.776;2023-02-15T07:08:23;52.55;;;32.88;;
30539;SDS011;17321;46.312;4.776;2023-02-15T07:10:49;54.42;;;34.03;;
30539;SDS011;17321;46.312;4.776;2023-02-15T07:13:16;54.70;;;34.22;;
30539;SDS011;17321;46.312;4.776;2023-02-15T07:15:42;50.97;;;34.88;;
30539;SDS011;17321;46.312;4.776;2023-02-15T07:18:08;56.40;;;35.92;;
30539;SDS011;17321;46.312;4.776;2023-02-15T07:20:36;47.95;;;32.88;;
30539;SDS011;17321;46.312;4.776;2023-02-15T07:23:02;51.08;;;34.45;;
30539;SDS011;17321;46.312;4.776;2023-02-15T07:25:29;49.05;;;33.03;;
30539;SDS011;17321;46.312;4.776;2023-02-15T07:28:03;55.17;;;35.47;;
30539;SDS011;17321;46.312;4.776;2023-02-15T07:30:29;56.60;;;36.38;;
30539;SDS011;17321;46.312;4.776;2023-02-15T07:32:56;58.35;;;37.83;;
30539;SDS011;17321;46.312;4.776;2023-02-15T07:35:48;63.53;;;41.60;;
30539;SDS011;17321;46.312;4.776;2023-02-15T07:38:14;70.07;;;40.95;;
30539;SDS011;17321;46.312;4.776;2023-02-15T07:40:40;56.78;;;35.67;;
30539;SDS011;17321;46.312;4.776;2023-02-15T07:43:06;58.70;;;39.35;;
30539;SDS011;17321;46.312;4.776;2023-02-15T07:45:32;60.95;;;38.90;;
30539;SDS011;17321;46.312;4.776;2023-02-15T07:48:00;60.10;;;37.97;;
30539;SDS011;17321;46.312;4.776;2023-02-15T07:50:26;61.53;;;39.25;;
30539;SDS011;17321;46.312;4.776;2023-02-15T07:52:52;70.10;;;41.63;;
30539;SDS011;17321;46.312;4.776;2023-02-15T07:55:18;57.53;;;38.40;;
30539;SDS011;17321;46.312;4.776;2023-02-15T07:57:45;61.58;;;40.17;;
30539;SDS011;17321;46.312;4.776;2023-02-15T08:00:12;65.47;;;43.55;;
30539;SDS011;17321;46.312;4.776;2023-02-15T08:02:39;73.18;;;45.55;;
30539;SDS011;17321;46.312;4.776;2023-02-15T08:05:05;63.22;;;44.33;;
30539;SDS011;17321;46.312;4.776;2023-02-15T08:07:32;65.93;;;44.08;;
30539;SDS011;17321;46.312;4.776;2023-02-15T08:09:58;68.68;;;45.20;;
30539;SDS011;17321;46.312;4.776;2023-02-15T08:12:27;66.80;;;43.13;;
30539;SDS011;17321;46.312;4.776;2023-02-15T08:14:53;72.25;;;47.05;;
30539;SDS011;17321;46.312;4.776;2023-02-15T08:17:19;69.68;;;44.88;;
30539;SDS011;17321;46.312;4.776;2023-02-15T08:19:45;71.43;;;47.10;;
30539;SDS011;17321;46.312;4.776;2023-02-15T08:22:12;67.75;;;46.92;;
30539;SDS011;17321;46.312;4.776;2023-02-15T08:24:38;69.97;;;44.95;;
30539;SDS011;17321;46.312;4.776;2023-02-15T08:27:08;67.55;;;44.92;;
30539;SDS011;17321;46.312;4.776;2023-02-15T08:29:36;74.78;;;48.35;;
30539;SDS011;17321;46.312;4.776;2023-02-15T08:32:06;70.32;;;47.70;;
30539;SDS011;17321;46.312;4.776;2023-02-15T08:34:35;73.60;;;48.95;;
30539;SDS011;17321;46.312;4.776;2023-02-15T08:37:02;78.90;;;50.47;;
30539;SDS011;17321;46.312;4.776;2023-02-15T08:39:28;79.63;;;51.22;;
30539;SDS011;17321;46.312;4.776;2023-02-15T08:41:54;79.40;;;51.08;;
30539;SDS011;17321;46.312;4.776;2023-02-15T08:44:20;80.13;;;51.30;;
30539;SDS011;17321;46.312;4.776;2023-02-15T08:46:47;83.40;;;51.58;;
30539;SDS011;17321;46.312;4.776;2023-02-15T08:49:19;83.15;;;52.88;;
30539;SDS011;17321;46.312;4.776;2023-02-15T08:51:46;77.38;;;48.13;;
30539;SDS011;17321;46.312;4.776;2023-02-15T08:54:13;70.15;;;45.78;;
30539;SDS011;17321;46.312;4.776;2023-02-15T08:56:41;77.55;;;50.00;;
30539;SDS011;17321;46.312;4.776;2023-02-15T08:59:10;76.07;;;47.63;;
30539;SDS011;17321;46.312;4.776;2023-02-15T09:01:37;77.50;;;47.75;;
30539;SDS011;17321;46.312;4.776;2023-02-15T09:04:04;67.63;;;46.03;;
30539;SDS011;17321;46.312;4.776;2023-02-15T09:06:33;77.95;;;47.15;;
30539;SDS011;17321;46.312;4.776;2023-02-15T09:09:00;76.63;;;46.40;;
30539;SDS011;17321;46.312;4.776;2023-02-15T09:11:27;75.57;;;47.53;;
30539;SDS011;17321;46.312;4.776;2023-02-15T09:13:54;69.00;;;44.63;;
30539;SDS011;17321;46.312;4.776;2023-02-15T09:16:21;72.63;;;45.15;;
30539;SDS011;17321;46.312;4.776;2023-02-15T09:18:50;77.85;;;45.17;;
30539;SDS011;17321;46.312;4.776;2023-02-15T09:21:17;70.20;;;45.65;;
30539;SDS011;17321;46.312;4.776;2023-02-15T09:23:44;74.93;;;46.92;;
30539;SDS011;17321;46.312;4.776;2023-02-15T09:26:11;66.75;;;42.45;;
30539;SDS011;17321;46.312;4.776;2023-02-15T09:28:38;64.30;;;42.70;;
30539;SDS011;17321;46.312;4.776;2023-02-15T09:31:05;67.93;;;43.65;;
30539;SDS011;17321;46.312;4.776;2023-02-15T09:33:33;71.78;;;43.90;;
30539;SDS011;17321;46.312;4.776;2023-02-15T09:35:59;63.17;;;41.70;;
30539;SDS011;17321;46.312;4.776;2023-02-15T09:38:26;58.92;;;39.80;;
30539;SDS011;17321;46.312;4.776;2023-02-15T09:40:58;59.13;;;39.33;;
30539;SDS011;17321;46.312;4.776;2023-02-15T09:43:39;59.42;;;38.95;;
30539;SDS011;17321;46.312;4.776;2023-02-15T09:48:55;56.65;;;37.42;;
30539;SDS011;17321;46.312;4.776;2023-02-15T09:56:43;60.67;;;41.53;;
30539;SDS011;17321;46.312;4.776;2023-02-15T10:01:56;62.45;;;41.40;;
30539;SDS011;17321;46.312;4.776;2023-02-15T10:09:49;62.88;;;40.38;;
30539;SDS011;17321;46.312;4.776;2023-02-15T10:25:12;53.80;;;36.85;;
30539;SDS011;17321;46.312;4.776;2023-02-15T10:27:48;61.60;;;37.83;;
30539;SDS011;17321;46.312;4.776;2023-02-15T10:30:20;69.88;;;39.03;;
30539;SDS011;17321;46.312;4.776;2023-02-15T10:32:53;51.42;;;36.58;;
30539;SDS011;17321;46.312;4.776;2023-02-15T10:51:14;54.23;;;38.90;;
30539;SDS011;17321;46.312;4.776;2023-02-15T10:53:49;55.33;;;38.45;;
30539;SDS011;17321;46.312;4.776;2023-02-15T10:58:56;56.85;;;37.67;;
30539;SDS011;17321;46.312;4.776;2023-02-15T11:07:02;56.25;;;37.80;;
30539;SDS011;17321;46.312;4.776;2023-02-15T11:09:33;53.17;;;36.53;;
30539;SDS011;17321;46.312;4.776;2023-02-15T11:12:02;53.20;;;35.85;;
30539;SDS011;17321;46.312;4.776;2023-02-15T11:16:59;56.35;;;39.25;;
30539;SDS011;17321;46.312;4.776;2023-02-15T11:19:30;53.13;;;36.72;;
30539;SDS011;17321;46.312;4.776;2023-02-15T11:21:57;57.15;;;38.75;;
30539;SDS011;17321;46.312;4.776;2023-02-15T11:24:26;56.25;;;36.88;;
30539;SDS011;17321;46.312;4.776;2023-02-15T11:36:57;59.75;;;40.88;;
30539;SDS011;17321;46.312;4.776;2023-02-15T11:39:24;57.70;;;40.33;;
30539;SDS011;17321;46.312;4.776;2023-02-15T11:41:55;63.00;;;39.15;;
30539;SDS011;17321;46.312;4.776;2023-02-15T11:45:07;55.38;;;36.80;;
30539;SDS011;17321;46.312;4.776;2023-02-15T11:47:12;54.63;;;38.92;;
30539;SDS011;17321;46.312;4.776;2023-02-15T11:49:38;56.25;;;37.22;;
30539;SDS011;17321;46.312;4.776;2023-02-15T11:52:06;51.40;;;36.70;;
30539;SDS011;17321;46.312;4.776;2023-02-15T11:54:33;51.92;;;36.88;;
30539;SDS011;17321;46.312;4.776;2023-02-15T11:57:06;56.33;;;38.30;;
30539;SDS011;17321;46.312;4.776;2023-02-15T11:59:36;52.67;;;38.00;;
30539;SDS011;17321;46.312;4.776;2023-02-15T12:02:09;55.92;;;36.70;;
30539;SDS011;17321;46.312;4.776;2023-02-15T12:04:40;50.85;;;36.35;;
30539;SDS011;17321;46.312;4.776;2023-02-15T12:12:42;51.67;;;35.90;;
30539;SDS011;17321;46.312;4.776;2023-02-15T12:15:11;48.13;;;34.22;;
30539;SDS011;17321;46.312;4.776;2023-02-15T12:20:46;45.13;;;32.22;;
30539;SDS011;17321;46.312;4.776;2023-02-15T12:23:03;46.88;;;32.88;;
30539;SDS011;17321;46.312;4.776;2023-02-15T12:25:41;45.42;;;33.22;;
30539;SDS011;17321;46.312;4.776;2023-02-15T12:28:25;44.05;;;32.42;;
30539;SDS011;17321;46.312;4.776;2023-02-15T12:30:52;46.22;;;33.25;;
30539;SDS011;17321;46.312;4.776;2023-02-15T12:35:58;39.83;;;30.63;;
30539;SDS011;17321;46.312;4.776;2023-02-15T12:38:26;43.78;;;30.85;;
30539;SDS011;17321;46.312;4.776;2023-02-15T12:41:03;41.35;;;30.52;;
30539;SDS011;17321;46.312;4.776;2023-02-15T12:43:31;41.92;;;30.33;;
30539;SDS011;17321;46.312;4.776;2023-02-15T12:46:12;45.70;;;31.17;;
30539;SDS011;17321;46.312;4.776;2023-02-15T12:48:39;45.55;;;29.80;;
30539;SDS011;17321;46.312;4.776;2023-02-15T12:51:08;43.63;;;30.02;;
30539;SDS011;17321;46.312;4.776;2023-02-15T12:53:35;46.00;;;29.05;;
30539;SDS011;17321;46.312;4.776;2023-02-15T12:56:06;39.25;;;28.00;;
30539;SDS011;17321;46.312;4.776;2023-02-15T12:58:34;39.30;;;30.13;;
30539;SDS011;17321;46.312;4.776;2023-02-15T13:01:18;41.42;;;28.98;;
30539;SDS011;17321;46.312;4.776;2023-02-15T13:03:55;40.17;;;29.20;;
30539;SDS011;17321;46.312;4.776;2023-02-15T13:06:21;43.65;;;29.13;;
30539;SDS011;17321;46.312;4.776;2023-02-15T13:08:49;40.22;;;31.25;;
30539;SDS011;17321;46.312;4.776;2023-02-15T13:11:19;42.38;;;30.23;;
30539;SDS011;17321;46.312;4.776;2023-02-15T13:13:56;43.45;;;29.20;;
30539;SDS011;17321;46.312;4.776;2023-02-15T13:16:41;38.20;;;27.60;;
30539;SDS011;17321;46.312;4.776;2023-02-15T13:19:18;52.35;;;29.15;;
30539;SDS011;17321;46.312;4.776;2023-02-15T13:21:49;41.03;;;30.60;;
30539;SDS011;17321;46.312;4.776;2023-02-15T13:24:23;44.60;;;28.77;;
30539;SDS011;17321;46.312;4.776;2023-02-15T13:26:49;43.05;;;28.70;;
30539;SDS011;17321;46.312;4.776;2023-02-15T13:31:42;35.63;;;27.63;;
30539;SDS011;17321;46.312;4.776;2023-02-15T13:34:11;36.13;;;28.23;;
30539;SDS011;17321;46.312;4.776;2023-02-15T13:44:54;34.47;;;25.38;;
30539;SDS011;17321;46.312;4.776;2023-02-15T13:52:38;35.25;;;26.83;;
30539;SDS011;17321;46.312;4.776;2023-02-15T14:02:40;36.58;;;26.85;;
30539;SDS011;17321;46.312;4.776;2023-02-15T14:07:52;34.58;;;25.73;;
30539;SDS011;17321;46.312;4.776;2023-02-15T14:15:53;32.50;;;25.23;;
30539;SDS011;17321;46.312;4.776;2023-02-15T14:18:24;39.22;;;25.33;;
30539;SDS011;17321;46.312;4.776;2023-02-15T14:21:10;32.83;;;23.88;;
30539;SDS011;17321;46.312;4.776;2023-02-15T14:23:45;33.28;;;23.92;;
30539;SDS011;17321;46.312;4.776;2023-02-15T14:28:51;31.05;;;22.55;;
30539;SDS011;17321;46.312;4.776;2023-02-15T14:31:24;28.92;;;21.77;;
30539;SDS011;17321;46.312;4.776;2023-02-15T14:33:53;32.40;;;21.65;;
30539;SDS011;17321;46.312;4.776;2023-02-15T14:36:20;30.92;;;22.52;;
30539;SDS011;17321;46.312;4.776;2023-02-15T14:38:56;23.45;;;18.40;;
30539;SDS011;17321;46.312;4.776;2023-02-15T14:44:19;28.13;;;19.73;;
30539;SDS011;17321;46.312;4.776;2023-02-15T14:49:25;26.02;;;19.55;;
30539;SDS011;17321;46.312;4.776;2023-02-15T14:51:55;26.05;;;19.58;;
30539;SDS011;17321;46.312;4.776;2023-02-15T15:09:42;23.25;;;17.58;;
30539;SDS011;17321;46.312;4.776;2023-02-15T15:12:36;20.63;;;17.38;;
30539;SDS011;17321;46.312;4.776;2023-02-15T15:15:02;27.17;;;18.67;;
30539;SDS011;17321;46.312;4.776;2023-02-15T15:20:02;26.13;;;17.70;;
30539;SDS011;17321;46.312;4.776;2023-02-15T15:22:29;29.67;;;18.85;;
30539;SDS011;17321;46.312;4.776;2023-02-15T15:24:56;25.98;;;18.50;;
30539;SDS011;17321;46.312;4.776;2023-02-15T15:27:43;22.92;;;18.40;;
30539;SDS011;17321;46.312;4.776;2023-02-15T15:35:29;25.63;;;18.27;;
30539;SDS011;17321;46.312;4.776;2023-02-15T15:53:02;22.40;;;17.63;;
30539;SDS011;17321;46.312;4.776;2023-02-15T15:55:30;23.10;;;18.08;;
30539;SDS011;17321;46.312;4.776;2023-02-15T15:58:03;22.83;;;17.48;;
30539;SDS011;17321;46.312;4.776;2023-02-15T16:02:57;24.92;;;17.30;;
30539;SDS011;17321;46.312;4.776;2023-02-15T16:05:23;20.42;;;16.48;;
30539;SDS011;17321;46.312;4.776;2023-02-15T16:07:49;21.80;;;16.17;;
30539;SDS011;17321;46.312;4.776;2023-02-15T16:12:47;24.02;;;16.67;;
30539;SDS011;17321;46.312;4.776;2023-02-15T16:17:41;25.25;;;18.15;;
30539;SDS011;17321;46.312;4.776;2023-02-15T16:20:25;24.17;;;16.30;;
30539;SDS011;17321;46.312;4.776;2023-02-15T16:22:54;26.70;;;17.80;;
30539;SDS011;17321;46.312;4.776;2023-02-15T16:27:50;23.55;;;17.50;;
30539;SDS011;17321;46.312;4.776;2023-02-15T16:30:24;23.63;;;16.52;;
30539;SDS011;17321;46.312;4.776;2023-02-15T16:33:07;20.98;;;15.57;;
30539;SDS011;17321;46.312;4.776;2023-02-15T16:35:34;23.98;;;16.38;;
30539;SDS011;17321;46.312;4.776;2023-02-15T16:38:00;22.85;;;16.38;;
30539;SDS011;17321;46.312;4.776;2023-02-15T16:40:30;23.42;;;15.60;;
30539;SDS011;17321;46.312;4.776;2023-02-15T16:43:00;22.67;;;16.00;;
30539;SDS011;17321;46.312;4.776;2023-02-15T16:47:54;23.15;;;14.60;;
30539;SDS011;17321;46.312;4.776;2023-02-15T16:50:39;34.22;;;16.15;;
30539;SDS011;17321;46.312;4.776;2023-02-15T16:53:06;20.25;;;15.00;;
30539;SDS011;17321;46.312;4.776;2023-02-15T16:55:39;22.63;;;15.07;;
30539;SDS011;17321;46.312;4.776;2023-02-15T16:58:07;28.42;;;14.50;;
30539;SDS011;17321;46.312;4.776;2023-02-15T17:00:35;21.55;;;14.85;;
30539;SDS011;17321;46.312;4.776;2023-02-15T17:03:05;26.63;;;15.15;;
30539;SDS011;17321;46.312;4.776;2023-02-15T17:05:33;23.27;;;15.65;;
30539;SDS011;17321;46.312;4.776;2023-02-15T17:10:36;29.48;;;17.88;;
30539;SDS011;17321;46.312;4.776;2023-02-15T17:13:14;25.38;;;15.20;;
30539;SDS011;17321;46.312;4.776;2023-02-15T17:15:41;29.75;;;16.92;;
30539;SDS011;17321;46.312;4.776;2023-02-15T17:18:18;26.48;;;14.82;;
30539;SDS011;17321;46.312;4.776;2023-02-15T17:20:45;27.33;;;15.63;;
30539;SDS011;17321;46.312;4.776;2023-02-15T17:25:47;24.70;;;15.98;;
30539;SDS011;17321;46.312;4.776;2023-02-15T17:28:20;29.63;;;16.42;;
30539;SDS011;17321;46.312;4.776;2023-02-15T17:30:47;25.67;;;15.85;;
30539;SDS011;17321;46.312;4.776;2023-02-15T17:33:22;28.35;;;17.92;;
30539;SDS011;17321;46.312;4.776;2023-02-15T17:38:30;27.30;;;17.83;;
30539;SDS011;17321;46.312;4.776;2023-02-15T17:40:56;27.00;;;18.02;;
30539;SDS011;17321;46.312;4.776;2023-02-15T17:43:23;36.92;;;17.67;;
30539;SDS011;17321;46.312;4.776;2023-02-15T17:45:50;27.67;;;16.48;;
30539;SDS011;17321;46.312;4.776;2023-02-15T17:48:20;29.17;;;16.02;;
30539;SDS011;17321;46.312;4.776;2023-02-15T17:50:47;25.95;;;18.85;;
30539;SDS011;17321;46.312;4.776;2023-02-15T17:53:15;32.92;;;19.95;;
30539;SDS011;17321;46.312;4.776;2023-02-15T17:55:42;42.85;;;24.55;;
30539;SDS011;17321;46.312;4.776;2023-02-15T17:58:12;29.17;;;18.30;;
30539;SDS011;17321;46.312;4.776;2023-02-15T18:00:40;33.53;;;19.17;;
30539;SDS011;17321;46.312;4.776;2023-02-15T18:03:28;32.33;;;19.80;;
30539;SDS011;17321;46.312;4.776;2023-02-15T18:06:14;29.63;;;19.90;;